sensor_id;sensor_type;location;lat;lon;timestamp;pressure;altitude;pressure_sealevel;temperature;humidity
55032;BME280;40928;51.076;7.950;2024-02-26T00:00:36;95320.19;;;3.49;94.87
55032;BME280;40928;51.076;7.950;2024-02-26T00:03:02;95320.75;;;3.52;94.73
55032;BME280;40928;51.076;7.950;2024-02-26T00:05:28;95329.25;;;3.54;94.95
55032;BME280;40928;51.076;7.950;2024-02-26T00:07:54;95323.50;;;3.57;94.78
55032;BME280;40928;51.076;7.950;2024-02-26T00:10:19;95319.56;;;3.59;94.56
55032;BME280;40928;51.076;7.950;2024-02-26T00:12:45;95322.53;;;3.63;93.98
55032;BME280;40928;51.076;7.950;2024-02-26T00:15:11;95313.00;;;3.62;94.46
55032;BME280;40928;51.076;7.950;2024-02-26T00:17:36;95318.28;;;3.62;94.92
55032;BME280;40928;51.076;7.950;2024-02-26T00:20:06;95320.16;;;3.61;94.99
55032;BME280;40928;51.076;7.950;2024-02-26T00:22:36;95311.97;;;3.63;94.49
55032;BME280;40928;51.076;7.950;2024-02-26T00:25:05;95305.09;;;3.62;94.70
55032;BME280;40928;51.076;7.950;2024-02-26T00:27:31;95307.72;;;3.62;95.29
55032;BME280;40928;51.076;7.950;2024-02-26T00:29:56;95299.25;;;3.60;94.48
55032;BME280;40928;51.076;7.950;2024-02-26T00:32:22;95298.78;;;3.63;93.28
55032;BME280;40928;51.076;7.950;2024-02-26T00:34:48;95296.72;;;3.65;93.24
55032;BME280;40928;51.076;7.950;2024-02-26T00:37:16;95298.06;;;3.68;92.88
55032;BME280;40928;51.076;7.950;2024-02-26T00:39:42;95311.38;;;3.73;92.75
55032;BME280;40928;51.076;7.950;2024-02-26T00:42:08;95306.91;;;3.73;92.12
55032;BME280;40928;51.076;7.950;2024-02-26T00:44:33;95316.16;;;3.76;92.84
55032;BME280;40928;51.076;7.950;2024-02-26T00:47:02;95298.72;;;3.75;93.10
55032;BME280;40928;51.076;7.950;2024-02-26T00:49:27;95303.44;;;3.73;93.01
55032;BME280;40928;51.076;7.950;2024-02-26T00:51:56;95293.91;;;3.72;93.76
55032;BME280;40928;51.076;7.950;2024-02-26T00:54:21;95296.56;;;3.72;94.40
55032;BME280;40928;51.076;7.950;2024-02-26T00:56:47;95296.25;;;3.68;94.81
55032;BME280;40928;51.076;7.950;2024-02-26T00:59:14;95294.88;;;3.65;95.17
55032;BME280;40928;51.076;7.950;2024-02-26T01:01:39;95299.59;;;3.63;95.37
55032;BME280;40928;51.076;7.950;2024-02-26T01:04:05;95290.78;;;3.58;96.17
55032;BME280;40928;51.076;7.950;2024-02-26T01:06:33;95293.09;;;3.54;96.62
55032;BME280;40928;51.076;7.950;2024-02-26T01:08:59;95292.44;;;3.47;97.26
55032;BME280;40928;51.076;7.950;2024-02-26T01:11:25;95287.06;;;3.42;97.94
55032;BME280;40928;51.076;7.950;2024-02-26T01:13:50;95280.66;;;3.38;98.46
55032;BME280;40928;51.076;7.950;2024-02-26T01:16:23;95275.03;;;3.34;98.72
55032;BME280;40928;51.076;7.950;2024-02-26T01:18:54;95285.03;;;3.32;99.04
55032;BME280;40928;51.076;7.950;2024-02-26T01:21:20;95287.34;;;3.28;99.16
55032;BME280;40928;51.076;7.950;2024-02-26T01:23:46;95292.38;;;3.30;99.11
55032;BME280;40928;51.076;7.950;2024-02-26T01:26:11;95300.28;;;3.30;99.53
55032;BME280;40928;51.076;7.950;2024-02-26T01:28:37;95292.88;;;3.27;100.00
55032;BME280;40928;51.076;7.950;2024-02-26T01:31:03;95297.56;;;3.25;100.00
55032;BME280;40928;51.076;7.950;2024-02-26T01:33:32;95299.19;;;3.26;100.00
55032;BME280;40928;51.076;7.950;2024-02-26T01:35:57;95294.13;;;3.24;100.00
55032;BME280;40928;51.076;7.950;2024-02-26T01:38:26;95296.75;;;3.24;100.00
55032;BME280;40928;51.076;7.950;2024-02-26T01:40:53;95304.34;;;3.20;100.00
55032;BME280;40928;51.076;7.950;2024-02-26T01:43:18;95294.25;;;3.17;100.00
55032;BME280;40928;51.076;7.950;2024-02-26T01:45:44;95298.50;;;3.18;100.00
55032;BME280;40928;51.076;7.950;2024-02-26T01:48:10;95295.28;;;3.16;100.00
55032;BME280;40928;51.076;7.950;2024-02-26T01:50:36;95296.69;;;3.19;100.00
55032;BME280;40928;51.076;7.950;2024-02-26T01:53:03;95301.59;;;3.15;100.00
55032;BME280;40928;51.076;7.950;2024-02-26T01:55:32;95296.56;;;3.14;100.00
55032;BME280;40928;51.076;7.950;2024-02-26T01:57:59;95299.41;;;3.12;100.00
55032;BME280;40928;51.076;7.950;2024-02-26T02:00:25;95302.56;;;3.09;100.00
55032;BME280;40928;51.076;7.950;2024-02-26T02:02:51;95301.28;;;3.12;100.00
55032;BME280;40928;51.076;7.950;2024-02-26T02:05:19;95304.94;;;3.11;100.00
55032;BME280;40928;51.076;7.950;2024-02-26T02:07:46;95313.09;;;3.09;100.00
55032;BME280;40928;51.076;7.950;2024-02-26T02:10:19;95314.72;;;3.10;100.00
55032;BME280;40928;51.076;7.950;2024-02-26T02:12:48;95319.28;;;3.15;100.00
55032;BME280;40928;51.076;7.950;2024-02-26T02:15:14;95322.25;;;3.18;100.00
55032;BME280;40928;51.076;7.950;2024-02-26T02:17:40;95322.00;;;3.20;100.00
55032;BME280;40928;51.076;7.950;2024-02-26T02:20:14;95314.66;;;3.22;100.00
55032;BME280;40928;51.076;7.950;2024-02-26T02:22:40;95312.84;;;3.23;100.00
55032;BME280;40928;51.076;7.950;2024-02-26T02:25:06;95311.44;;;3.20;100.00
55032;BME280;40928;51.076;7.950;2024-02-26T02:27:32;95312.50;;;3.19;100.00
55032;BME280;40928;51.076;7.950;2024-02-26T02:30:01;95315.34;;;3.17;100.00
55032;BME280;40928;51.076;7.950;2024-02-26T02:32:31;95314.56;;;3.17;100.00
55032;BME280;40928;51.076;7.950;2024-02-26T02:34:58;95310.09;;;3.17;100.00
55032;BME280;40928;51.076;7.950;2024-02-26T02:37:24;95305.38;;;3.19;100.00
55032;BME280;40928;51.076;7.950;2024-02-26T02:39:49;95299.53;;;3.17;100.00
55032;BME280;40928;51.076;7.950;2024-02-26T02:42:18;95297.13;;;3.16;100.00
55032;BME280;40928;51.076;7.950;2024-02-26T02:44:44;95302.63;;;3.14;100.00
55032;BME280;40928;51.076;7.950;2024-02-26T02:47:10;95287.84;;;3.13;100.00
55032;BME280;40928;51.076;7.950;2024-02-26T02:49:35;95287.84;;;3.13;100.00
55032;BME280;40928;51.076;7.950;2024-02-26T02:52:01;95289.69;;;3.13;100.00
55032;BME280;40928;51.076;7.950;2024-02-26T02:54:30;95285.69;;;3.10;100.00
55032;BME280;40928;51.076;7.950;2024-02-26T02:56:56;95284.31;;;3.08;100.00
55032;BME280;40928;51.076;7.950;2024-02-26T02:59:21;95283.53;;;3.07;100.00
55032;BME280;40928;51.076;7.950;2024-02-26T03:01:50;95292.78;;;3.10;100.00
55032;BME280;40928;51.076;7.950;2024-02-26T03:04:16;95294.97;;;3.13;100.00
55032;BME280;40928;51.076;7.950;2024-02-26T03:06:41;95285.19;;;3.13;100.00
55032;BME280;40928;51.076;7.950;2024-02-26T03:09:10;95283.13;;;3.15;100.00
55032;BME280;40928;51.076;7.950;2024-02-26T03:11:36;95281.63;;;3.19;100.00
55032;BME280;40928;51.076;7.950;2024-02-26T03:14:09;95275.22;;;3.15;100.00
55032;BME280;40928;51.076;7.950;2024-02-26T03:16:35;95286.44;;;3.23;100.00
55032;BME280;40928;51.076;7.950;2024-02-26T03:19:01;95285.63;;;3.22;100.00
55032;BME280;40928;51.076;7.950;2024-02-26T03:21:28;95284.03;;;3.21;100.00
55032;BME280;40928;51.076;7.950;2024-02-26T03:23:54;95294.03;;;3.19;100.00
55032;BME280;40928;51.076;7.950;2024-02-26T03:26:48;95293.47;;;3.17;100.00
55032;BME280;40928;51.076;7.950;2024-02-26T03:29:14;95295.88;;;3.18;100.00
55032;BME280;40928;51.076;7.950;2024-02-26T03:31:40;95300.34;;;3.18;100.00
55032;BME280;40928;51.076;7.950;2024-02-26T03:34:05;95293.78;;;3.20;100.00
55032;BME280;40928;51.076;7.950;2024-02-26T03:36:31;95290.69;;;3.24;100.00
55032;BME280;40928;51.076;7.950;2024-02-26T03:38:57;95296.75;;;3.24;100.00
55032;BME280;40928;51.076;7.950;2024-02-26T03:41:23;95297.31;;;3.26;100.00
55032;BME280;40928;51.076;7.950;2024-02-26T03:43:51;95290.78;;;3.29;100.00
55032;BME280;40928;51.076;7.950;2024-02-26T03:46:17;95287.09;;;3.30;100.00
55032;BME280;40928;51.076;7.950;2024-02-26T03:48:43;95286.63;;;3.33;100.00
55032;BME280;40928;51.076;7.950;2024-02-26T03:51:09;95298.00;;;3.33;100.00
55032;BME280;40928;51.076;7.950;2024-02-26T03:53:36;95287.59;;;3.27;100.00
55032;BME280;40928;51.076;7.950;2024-02-26T03:56:05;95292.06;;;3.26;100.00
55032;BME280;40928;51.076;7.950;2024-02-26T03:58:31;95285.50;;;3.29;100.00
55032;BME280;40928;51.076;7.950;2024-02-26T04:00:57;95290.09;;;3.33;100.00
55032;BME280;40928;51.076;7.950;2024-02-26T04:03:23;95283.53;;;3.36;100.00
55032;BME280;40928;51.076;7.950;2024-02-26T04:05:48;95287.78;;;3.37;100.00
55032;BME280;40928;51.076;7.950;2024-02-26T04:08:14;95289.38;;;3.38;100.00
55032;BME280;40928;51.076;7.950;2024-02-26T04:10:40;95285.34;;;3.35;100.00
55032;BME280;40928;51.076;7.950;2024-02-26T04:13:11;95283.78;;;3.34;100.00
55032;BME280;40928;51.076;7.950;2024-02-26T04:15:37;95280.56;;;3.32;100.00
55032;BME280;40928;51.076;7.950;2024-02-26T04:18:03;95277.13;;;3.32;100.00
55032;BME280;40928;51.076;7.950;2024-02-26T04:20:29;95281.59;;;3.31;100.00
55032;BME280;40928;51.076;7.950;2024-02-26T04:22:54;95281.81;;;3.30;100.00
55032;BME280;40928;51.076;7.950;2024-02-26T04:25:20;95276.53;;;3.30;100.00
55032;BME280;40928;51.076;7.950;2024-02-26T04:27:48;95278.72;;;3.33;100.00
55032;BME280;40928;51.076;7.950;2024-02-26T04:30:14;95285.34;;;3.35;100.00
55032;BME280;40928;51.076;7.950;2024-02-26T04:32:40;95292.72;;;3.33;100.00
55032;BME280;40928;51.076;7.950;2024-02-26T04:35:05;95288.69;;;3.31;100.00
55032;BME280;40928;51.076;7.950;2024-02-26T04:37:31;95296.28;;;3.27;100.00
55032;BME280;40928;51.076;7.950;2024-02-26T04:40:00;95300.78;;;3.27;100.00
55032;BME280;40928;51.076;7.950;2024-02-26T04:42:30;95296.28;;;3.27;100.00
55032;BME280;40928;51.076;7.950;2024-02-26T04:44:55;95293.34;;;3.24;100.00
55032;BME280;40928;51.076;7.950;2024-02-26T04:47:21;95307.09;;;3.26;100.00
55032;BME280;40928;51.076;7.950;2024-02-26T04:49:49;95297.31;;;3.26;100.00
55032;BME280;40928;51.076;7.950;2024-02-26T04:52:18;95285.63;;;3.22;100.00
55032;BME280;40928;51.076;7.950;2024-02-26T04:54:47;95299.19;;;3.26;100.00
55032;BME280;40928;51.076;7.950;2024-02-26T04:57:12;95298.59;;;3.24;100.00
55032;BME280;40928;51.076;7.950;2024-02-26T04:59:44;95306.75;;;3.22;100.00
55032;BME280;40928;51.076;7.950;2024-02-26T05:02:18;95311.22;;;3.22;100.00
55032;BME280;40928;51.076;7.950;2024-02-26T05:04:45;95313.88;;;3.22;100.00
55032;BME280;40928;51.076;7.950;2024-02-26T05:07:10;95314.44;;;3.24;100.00
55032;BME280;40928;51.076;7.950;2024-02-26T05:09:37;95306.97;;;3.20;100.00
55032;BME280;40928;51.076;7.950;2024-02-26T05:12:03;95306.97;;;3.20;100.00
55032;BME280;40928;51.076;7.950;2024-02-26T05:14:35;95309.63;;;3.20;100.00
55032;BME280;40928;51.076;7.950;2024-02-26T05:17:02;95305.63;;;3.18;100.00
55032;BME280;40928;51.076;7.950;2024-02-26T05:19:41;95304.81;;;3.17;100.00
55032;BME280;40928;51.076;7.950;2024-02-26T05:22:07;95315.34;;;3.17;100.00
55032;BME280;40928;51.076;7.950;2024-02-26T05:24:32;95307.22;;;3.19;100.00
55032;BME280;40928;51.076;7.950;2024-02-26T05:26:59;95313.88;;;3.22;100.00
55032;BME280;40928;51.076;7.950;2024-02-26T05:29:25;95314.66;;;3.22;100.00
55032;BME280;40928;51.076;7.950;2024-02-26T05:31:53;95318.56;;;3.19;100.00
55032;BME280;40928;51.076;7.950;2024-02-26T05:34:19;95328.75;;;3.28;100.00
55032;BME280;40928;51.076;7.950;2024-02-26T05:36:45;95330.34;;;3.29;100.00
55032;BME280;40928;51.076;7.950;2024-02-26T05:39:13;95330.91;;;3.31;100.00
55032;BME280;40928;51.076;7.950;2024-02-26T05:41:45;95333.22;;;3.27;100.00
55032;BME280;40928;51.076;7.950;2024-02-26T05:44:14;95331.94;;;3.30;100.00
55032;BME280;40928;51.076;7.950;2024-02-26T05:46:41;95330.13;;;3.30;100.00
55032;BME280;40928;51.076;7.950;2024-02-26T05:49:11;95343.31;;;3.30;100.00
55032;BME280;40928;51.076;7.950;2024-02-26T05:51:37;95337.22;;;3.30;100.00
55032;BME280;40928;51.076;7.950;2024-02-26T05:54:07;95341.00;;;3.34;100.00
55032;BME280;40928;51.076;7.950;2024-02-26T05:56:33;95341.25;;;3.32;100.00
55032;BME280;40928;51.076;7.950;2024-02-26T05:58:59;95348.91;;;3.34;100.00
55032;BME280;40928;51.076;7.950;2024-02-26T06:01:25;95344.91;;;3.31;100.00
55032;BME280;40928;51.076;7.950;2024-02-26T06:03:51;95343.00;;;3.27;100.00
55032;BME280;40928;51.076;7.950;2024-02-26T06:06:17;95349.50;;;3.36;100.00
55032;BME280;40928;51.076;7.950;2024-02-26T06:08:43;95350.06;;;3.38;100.00
55032;BME280;40928;51.076;7.950;2024-02-26T06:11:09;95359.00;;;3.37;100.00
55032;BME280;40928;51.076;7.950;2024-02-26T06:13:35;95360.84;;;3.37;100.00
55032;BME280;40928;51.076;7.950;2024-02-26T06:16:01;95357.41;;;3.36;100.00
55032;BME280;40928;51.076;7.950;2024-02-26T06:18:30;95360.75;;;3.31;100.00
55032;BME280;40928;51.076;7.950;2024-02-26T06:20:56;95362.13;;;3.34;100.00
55032;BME280;40928;51.076;7.950;2024-02-26T06:23:32;95366.59;;;3.33;100.00
55032;BME280;40928;51.076;7.950;2024-02-26T06:25:59;95374.72;;;3.32;100.00
55032;BME280;40928;51.076;7.950;2024-02-26T06:28:25;95376.59;;;3.31;100.00
55032;BME280;40928;51.076;7.950;2024-02-26T06:30:56;95374.72;;;3.32;100.00
55032;BME280;40928;51.076;7.950;2024-02-26T06:33:25;95382.44;;;3.33;100.00
55032;BME280;40928;51.076;7.950;2024-02-26T06:35:52;95383.53;;;3.38;100.00
55032;BME280;40928;51.076;7.950;2024-02-26T06:38:22;95383.53;;;3.38;100.00
55032;BME280;40928;51.076;7.950;2024-02-26T06:40:47;95379.53;;;3.35;100.00
55032;BME280;40928;51.076;7.950;2024-02-26T06:43:17;95385.84;;;3.34;100.00
55032;BME280;40928;51.076;7.950;2024-02-26T06:45:49;95386.44;;;3.36;100.00
55032;BME280;40928;51.076;7.950;2024-02-26T06:48:18;95390.66;;;3.37;100.00
55032;BME280;40928;51.076;7.950;2024-02-26T06:50:45;95388.03;;;3.37;100.00
55032;BME280;40928;51.076;7.950;2024-02-26T06:53:13;95395.50;;;3.40;100.00
55032;BME280;40928;51.076;7.950;2024-02-26T06:55:40;95398.34;;;3.39;100.00
55032;BME280;40928;51.076;7.950;2024-02-26T06:58:09;95400.66;;;3.35;100.00
55032;BME280;40928;51.076;7.950;2024-02-26T07:00:39;95402.25;;;3.36;100.00
55032;BME280;40928;51.076;7.950;2024-02-26T07:03:42;95402.00;;;3.38;100.00
55032;BME280;40928;51.076;7.950;2024-02-26T07:06:20;95403.63;;;3.39;100.00
55032;BME280;40928;51.076;7.950;2024-02-26T07:09:34;95404.44;;;3.39;100.00
55032;BME280;40928;51.076;7.950;2024-02-26T07:12:00;95410.84;;;3.43;100.00
55032;BME280;40928;51.076;7.950;2024-02-26T07:14:27;95416.34;;;3.42;100.00
55032;BME280;40928;51.076;7.950;2024-02-26T07:16:54;95418.22;;;3.41;100.00
55032;BME280;40928;51.076;7.950;2024-02-26T07:19:20;95421.06;;;3.40;100.00
55032;BME280;40928;51.076;7.950;2024-02-26T07:21:45;95422.09;;;3.39;100.00
55032;BME280;40928;51.076;7.950;2024-02-26T07:24:11;95422.44;;;3.42;100.00
55032;BME280;40928;51.076;7.950;2024-02-26T07:26:38;95427.47;;;3.44;100.00
55032;BME280;40928;51.076;7.950;2024-02-26T07:29:07;95429.88;;;3.45;100.00
55032;BME280;40928;51.076;7.950;2024-02-26T07:31:35;95443.66;;;3.47;100.00
55032;BME280;40928;51.076;7.950;2024-02-26T07:34:02;95434.94;;;3.47;100.00
55032;BME280;40928;51.076;7.950;2024-02-26T07:36:28;95438.16;;;3.49;100.00
55032;BME280;40928;51.076;7.950;2024-02-26T07:38:54;95442.63;;;3.48;100.00
55032;BME280;40928;51.076;7.950;2024-02-26T07:41:20;95436.31;;;3.49;100.00
55032;BME280;40928;51.076;7.950;2024-02-26T07:43:46;95434.47;;;3.50;100.00
55032;BME280;40928;51.076;7.950;2024-02-26T07:46:12;95444.22;;;3.49;100.00
55032;BME280;40928;51.076;7.950;2024-02-26T07:48:39;95447.44;;;3.52;100.00
55032;BME280;40928;51.076;7.950;2024-02-26T07:51:06;95445.38;;;3.54;100.00
55032;BME280;40928;51.076;7.950;2024-02-26T07:53:34;95447.75;;;3.55;100.00
55032;BME280;40928;51.076;7.950;2024-02-26T07:56:03;95445.38;;;3.54;100.00
55032;BME280;40928;51.076;7.950;2024-02-26T07:58:28;95455.22;;;3.58;100.00
55032;BME280;40928;51.076;7.950;2024-02-26T08:00:55;95453.63;;;3.57;100.00
55032;BME280;40928;51.076;7.950;2024-02-26T08:03:21;95452.13;;;3.61;100.00
55032;BME280;40928;51.076;7.950;2024-02-26T08:05:48;95450.06;;;3.63;100.00
55032;BME280;40928;51.076;7.950;2024-02-26T08:08:14;95450.63;;;3.65;100.00
55032;BME280;40928;51.076;7.950;2024-02-26T08:10:40;95447.63;;;3.62;100.00
55032;BME280;40928;51.076;7.950;2024-02-26T08:13:12;95462.09;;;3.71;100.00
55032;BME280;40928;51.076;7.950;2024-02-26T08:15:39;95459.19;;;3.73;100.00
55032;BME280;40928;51.076;7.950;2024-02-26T08:18:05;95470.91;;;3.77;100.00
55032;BME280;40928;51.076;7.950;2024-02-26T08:20:31;95464.34;;;3.79;100.00
55032;BME280;40928;51.076;7.950;2024-02-26T08:22:59;95465.72;;;3.82;100.00
55032;BME280;40928;51.076;7.950;2024-02-26T08:25:25;95465.72;;;3.82;100.00
55032;BME280;40928;51.076;7.950;2024-02-26T08:27:51;95469.75;;;3.85;100.00
55032;BME280;40928;51.076;7.950;2024-02-26T08:30:17;95472.94;;;3.87;100.00
55032;BME280;40928;51.076;7.950;2024-02-26T08:32:44;95471.09;;;3.87;100.00
55032;BME280;40928;51.076;7.950;2024-02-26T08:35:11;95474.88;;;3.91;100.00
55032;BME280;40928;51.076;7.950;2024-02-26T08:37:39;95472.56;;;3.95;100.00
55032;BME280;40928;51.076;7.950;2024-02-26T08:40:06;95471.78;;;3.94;100.00
55032;BME280;40928;51.076;7.950;2024-02-26T08:42:32;95475.22;;;3.95;100.00
55032;BME280;40928;51.076;7.950;2024-02-26T08:44:58;95471.53;;;3.96;100.00
55032;BME280;40928;51.076;7.950;2024-02-26T08:47:26;95478.66;;;3.95;100.00
55032;BME280;40928;51.076;7.950;2024-02-26T08:49:54;95471.28;;;3.97;100.00
55032;BME280;40928;51.076;7.950;2024-02-26T08:52:21;95479.00;;;3.99;100.00
55032;BME280;40928;51.076;7.950;2024-02-26T08:54:47;95473.47;;;4.01;100.00
55032;BME280;40928;51.076;7.950;2024-02-26T08:57:13;95464.28;;;4.03;100.00
55032;BME280;40928;51.076;7.950;2024-02-26T08:59:40;95477.00;;;4.06;100.00
55032;BME280;40928;51.076;7.950;2024-02-26T09:02:09;95480.78;;;4.10;100.00
55032;BME280;40928;51.076;7.950;2024-02-26T09:04:36;95489.28;;;4.13;100.00
55032;BME280;40928;51.076;7.950;2024-02-26T09:07:03;95491.66;;;4.14;100.00
55032;BME280;40928;51.076;7.950;2024-02-26T09:09:29;95495.69;;;4.17;100.00
55032;BME280;40928;51.076;7.950;2024-02-26T09:11:54;95493.84;;;4.17;100.00
55032;BME280;40928;51.076;7.950;2024-02-26T09:14:22;95495.22;;;4.20;100.00
55032;BME280;40928;51.076;7.950;2024-02-26T09:16:48;95493.38;;;4.20;100.00
55032;BME280;40928;51.076;7.950;2024-02-26T09:19:17;95499.56;;;4.26;100.00
55032;BME280;40928;51.076;7.950;2024-02-26T09:21:44;95501.50;;;4.31;100.00
55032;BME280;40928;51.076;7.950;2024-02-26T09:24:12;95508.72;;;4.35;100.00
55032;BME280;40928;51.076;7.950;2024-02-26T09:26:40;95514.81;;;4.36;100.00
55032;BME280;40928;51.076;7.950;2024-02-26T09:29:06;95507.44;;;4.38;100.00
55032;BME280;40928;51.076;7.950;2024-02-26T09:31:34;95508.22;;;4.38;100.00
55032;BME280;40928;51.076;7.950;2024-02-26T09:33:59;95513.06;;;4.41;100.00
55032;BME280;40928;51.076;7.950;2024-02-26T09:36:27;95519.16;;;4.42;100.00
55032;BME280;40928;51.076;7.950;2024-02-26T09:38:53;95507.88;;;4.47;100.00
55032;BME280;40928;51.076;7.950;2024-02-26T09:41:19;95510.59;;;4.52;100.00
55032;BME280;40928;51.076;7.950;2024-02-26T09:43:48;95517.47;;;4.53;100.00
55032;BME280;40928;51.076;7.950;2024-02-26T09:46:17;95520.22;;;4.58;100.00
55032;BME280;40928;51.076;7.950;2024-02-26T09:48:46;95522.63;;;4.60;100.00
55032;BME280;40928;51.076;7.950;2024-02-26T09:51:14;95514.94;;;4.58;100.00
55032;BME280;40928;51.076;7.950;2024-02-26T09:53:46;95522.81;;;4.70;100.00
55032;BME280;40928;51.076;7.950;2024-02-26T09:56:19;95531.63;;;4.76;100.00
55032;BME280;40928;51.076;7.950;2024-02-26T09:58:47;95528.25;;;4.80;100.00
55032;BME280;40928;51.076;7.950;2024-02-26T10:01:19;95527.47;;;4.80;100.00
55032;BME280;40928;51.076;7.950;2024-02-26T10:03:52;95534.44;;;4.86;100.00
55032;BME280;40928;51.076;7.950;2024-02-26T10:06:22;95536.59;;;4.89;100.00
55032;BME280;40928;51.076;7.950;2024-02-26T10:08:49;95537.28;;;4.96;100.00
55032;BME280;40928;51.076;7.950;2024-02-26T10:11:16;95539.75;;;5.03;100.00
55032;BME280;40928;51.076;7.950;2024-02-26T10:13:44;95532.69;;;5.09;100.00
55032;BME280;40928;51.076;7.950;2024-02-26T10:16:10;95539.75;;;5.20;100.00
55032;BME280;40928;51.076;7.950;2024-02-26T10:18:49;95538.78;;;5.26;100.00
55032;BME280;40928;51.076;7.950;2024-02-26T10:21:21;95538.63;;;5.33;100.00
55032;BME280;40928;51.076;7.950;2024-02-26T10:23:48;95543.97;;;5.38;100.00
55032;BME280;40928;51.076;7.950;2024-02-26T10:26:17;95546.16;;;5.41;100.00
55032;BME280;40928;51.076;7.950;2024-02-26T10:28:45;95547.28;;;5.45;100.00
55032;BME280;40928;51.076;7.950;2024-02-26T10:31:14;95545.75;;;5.49;100.00
55032;BME280;40928;51.076;7.950;2024-02-26T10:33:42;95552.09;;;5.48;100.00
55032;BME280;40928;51.076;7.950;2024-02-26T10:36:14;95565.06;;;5.50;100.00
55032;BME280;40928;51.076;7.950;2024-02-26T10:38:42;95556.09;;;5.51;100.00
55032;BME280;40928;51.076;7.950;2024-02-26T10:41:13;95558.25;;;5.54;100.00
55032;BME280;40928;51.076;7.950;2024-02-26T10:43:42;95564.03;;;5.51;100.00
55032;BME280;40928;51.076;7.950;2024-02-26T10:46:09;95579.69;;;5.53;100.00
55032;BME280;40928;51.076;7.950;2024-02-26T10:48:36;95577.59;;;5.55;100.00
55032;BME280;40928;51.076;7.950;2024-02-26T10:51:03;95582.09;;;5.54;100.00
55032;BME280;40928;51.076;7.950;2024-02-26T10:53:29;95583.13;;;5.53;100.00
55032;BME280;40928;51.076;7.950;2024-02-26T10:56:03;95584.19;;;5.52;100.00
55032;BME280;40928;51.076;7.950;2024-02-26T10:58:31;95578.88;;;5.52;100.00
55032;BME280;40928;51.076;7.950;2024-02-26T11:00:57;95586.56;;;5.54;100.00
55032;BME280;40928;51.076;7.950;2024-02-26T11:03:24;95592.13;;;5.52;100.00
55032;BME280;40928;51.076;7.950;2024-02-26T11:05:51;95593.16;;;5.51;100.00
55032;BME280;40928;51.076;7.950;2024-02-26T11:08:21;95604.47;;;5.46;100.00
55032;BME280;40928;51.076;7.950;2024-02-26T11:10:52;95603.66;;;5.46;100.00
55032;BME280;40928;51.076;7.950;2024-02-26T11:13:19;95596.53;;;5.46;100.00
55032;BME280;40928;51.076;7.950;2024-02-26T11:15:51;95602.63;;;5.47;100.00
55032;BME280;40928;51.076;7.950;2024-02-26T11:18:20;95598.13;;;5.47;100.00
55032;BME280;40928;51.076;7.950;2024-02-26T11:20:49;95603.75;;;5.51;100.00
55032;BME280;40928;51.076;7.950;2024-02-26T11:23:16;95614.66;;;5.55;100.00
55032;BME280;40928;51.076;7.950;2024-02-26T11:25:42;95619.47;;;5.58;100.00
55032;BME280;40928;51.076;7.950;2024-02-26T11:28:12;95617.94;;;5.62;99.92
55032;BME280;40928;51.076;7.950;2024-02-26T11:30:43;95614.81;;;5.65;99.97
55032;BME280;40928;51.076;7.950;2024-02-26T11:33:10;95611.94;;;5.67;99.66
55032;BME280;40928;51.076;7.950;2024-02-26T11:35:37;95614.88;;;5.70;100.00
55032;BME280;40928;51.076;7.950;2024-02-26T11:38:40;95622.59;;;5.72;100.00
55032;BME280;40928;51.076;7.950;2024-02-26T11:41:20;95624.53;;;5.76;100.00
55032;BME280;40928;51.076;7.950;2024-02-26T11:44:01;95617.94;;;5.79;100.00
55032;BME280;40928;51.076;7.950;2024-02-26T11:46:32;95618.25;;;5.83;100.00
55032;BME280;40928;51.076;7.950;2024-02-26T11:49:00;95620.91;;;5.83;100.00
55032;BME280;40928;51.076;7.950;2024-02-26T11:51:28;95617.53;;;5.70;100.00
55032;BME280;40928;51.076;7.950;2024-02-26T11:53:57;95617.06;;;5.73;100.00
55032;BME280;40928;51.076;7.950;2024-02-26T11:56:24;95619.97;;;5.72;100.00
55032;BME280;40928;51.076;7.950;2024-02-26T11:59:36;95625.09;;;5.78;100.00
55032;BME280;40928;51.076;7.950;2024-02-26T12:02:02;95628.59;;;5.84;100.00
55032;BME280;40928;51.076;7.950;2024-02-26T12:04:30;95631.56;;;5.88;100.00
55032;BME280;40928;51.076;7.950;2024-02-26T12:06:57;95636.38;;;5.91;100.00
55032;BME280;40928;51.076;7.950;2024-02-26T12:09:38;95629.31;;;5.97;100.00
55032;BME280;40928;51.076;7.950;2024-02-26T12:12:09;95625.72;;;6.03;100.00
55032;BME280;40928;51.076;7.950;2024-02-26T12:14:50;95631.63;;;6.10;100.00
55032;BME280;40928;51.076;7.950;2024-02-26T12:17:22;95631.16;;;6.13;100.00
55032;BME280;40928;51.076;7.950;2024-02-26T12:19:48;95629.63;;;6.17;100.00
55032;BME280;40928;51.076;7.950;2024-02-26T12:22:14;95633.94;;;6.23;100.00
55032;BME280;40928;51.076;7.950;2024-02-26T12:24:44;95644.13;;;6.32;100.00
55032;BME280;40928;51.076;7.950;2024-02-26T12:27:10;95636.16;;;6.32;100.00
55032;BME280;40928;51.076;7.950;2024-02-26T12:29:36;95626.03;;;6.29;100.00
55032;BME280;40928;51.076;7.950;2024-02-26T12:32:03;95624.25;;;6.34;100.00
55032;BME280;40928;51.076;7.950;2024-02-26T12:34:29;95623.34;;;6.46;100.00
55032;BME280;40928;51.076;7.950;2024-02-26T12:36:56;95628.78;;;6.56;100.00
55032;BME280;40928;51.076;7.950;2024-02-26T12:39:22;95632.84;;;6.64;99.62
55032;BME280;40928;51.076;7.950;2024-02-26T12:41:48;95624.81;;;6.59;99.43
55032;BME280;40928;51.076;7.950;2024-02-26T12:44:18;95639.97;;;6.63;100.00
55032;BME280;40928;51.076;7.950;2024-02-26T12:46:44;95637.69;;;6.72;97.78
55032;BME280;40928;51.076;7.950;2024-02-26T12:49:15;95651.41;;;6.64;96.64
55032;BME280;40928;51.076;7.950;2024-02-26T12:51:42;95653.19;;;6.58;96.62
55032;BME280;40928;51.076;7.950;2024-02-26T12:54:08;95657.31;;;6.49;97.41
55032;BME280;40928;51.076;7.950;2024-02-26T12:56:34;95660.81;;;6.54;96.82
55032;BME280;40928;51.076;7.950;2024-02-26T12:59:00;95659.56;;;6.57;97.98
55032;BME280;40928;51.076;7.950;2024-02-26T13:01:28;95662.75;;;6.59;98.21
55032;BME280;40928;51.076;7.950;2024-02-26T13:03:54;95663.56;;;6.60;98.36
55032;BME280;40928;51.076;7.950;2024-02-26T13:06:20;95666.75;;;6.62;99.10